Time;durP1;ratioP1;P1;durP2;ratioP2;P2;SDS_P1;SDS_P2;PMS_P1;PMS_P2;Temp;Humidity;BMP_temperature;BMP_pressure;BME280_temperature;BME280_humidity;BME280_pressure;Samples;Min_cycle;Max_cycle;Signal;HPM_P1;HPM_P2
2022/07/07 00:01:49;;;;;;;0.90;0.52;;;;;;;21.83;59.06;102135.81;5072815;28;20032;-79
2022/07/07 00:04:15;;;;;;;0.20;0.20;;;;;;;22.02;58.53;102146.63;5073684;28;20056;-79
2022/07/07 00:06:41;;;;;;;0.00;0.00;;;;;;;22.00;58.10;102142.25;5073950;28;20464;-78
2022/07/07 00:09:07;;;;;;;0.00;0.00;;;;;;;22.02;57.55;102134.94;5073840;28;20031;-78
2022/07/07 00:11:34;;;;;;;0.10;0.10;;;;;;;21.96;57.32;102130.72;5073313;28;20028;-79
2022/07/07 00:14:00;;;;;;;0.15;0.15;;;;;;;21.95;56.96;102116.34;5073481;28;20035;-78
2022/07/07 00:16:26;;;;;;;0.20;0.20;;;;;;;22.01;56.53;102127.78;5073534;28;20028;-78
2022/07/07 00:18:53;;;;;;;0.10;0.10;;;;;;;22.13;56.31;102128.09;5073625;28;20048;-78
2022/07/07 00:21:19;;;;;;;0.00;0.00;;;;;;;22.16;56.28;102116.25;5072572;28;20024;-78
2022/07/07 00:23:45;;;;;;;0.00;0.00;;;;;;;22.23;56.02;102117.72;5073619;28;20036;-77
2022/07/07 00:26:11;;;;;;;0.05;0.05;;;;;;;22.12;55.59;102109.28;5073503;28;20028;-78
2022/07/07 00:28:37;;;;;;;0.00;0.00;;;;;;;22.02;55.36;102108.84;5072954;28;20046;-78
2022/07/07 00:31:03;;;;;;;0.00;0.00;;;;;;;22.00;55.37;102104.47;5072611;28;20044;-79
2022/07/07 00:33:29;;;;;;;0.08;0.08;;;;;;;22.14;55.03;102105.56;5073114;28;20036;-79
2022/07/07 00:35:56;;;;;;;0.00;0.00;;;;;;;22.08;54.63;102107.66;5072942;28;20553;-79
2022/07/07 00:38:22;;;;;;;0.10;0.10;;;;;;;22.20;54.63;102095.41;5073168;28;20047;-78
2022/07/07 00:40:51;;;;;;;0.10;0.10;;;;;;;22.20;54.29;102095.41;5071867;28;20496;-79
2022/07/07 00:43:17;;;;;;;0.80;0.80;;;;;;;21.98;53.87;102091.91;5072912;28;20058;-79
2022/07/07 00:45:47;;;;;;;0.10;0.10;;;;;;;22.13;54.14;102084.00;5072847;28;20591;-78
2022/07/07 00:48:14;;;;;;;0.40;0.40;;;;;;;22.21;53.49;102083.66;5073688;28;20505;-79
2022/07/07 00:50:42;;;;;;;0.10;0.10;;;;;;;22.15;53.55;102087.50;5072484;28;20035;-79
2022/07/07 00:53:08;;;;;;;0.00;0.00;;;;;;;21.97;52.85;102090.16;5072838;28;20031;-79
2022/07/07 00:55:35;;;;;;;0.10;0.10;;;;;;;21.94;53.08;102102.94;5072834;28;20036;-79
2022/07/07 00:58:01;;;;;;;0.00;0.00;;;;;;;21.94;53.10;102090.34;5072600;28;20035;-78
2022/07/07 01:00:27;;;;;;;0.20;0.20;;;;;;;21.98;52.82;102088.31;5072629;28;20040;-78
2022/07/07 01:02:53;;;;;;;0.00;0.00;;;;;;;21.74;53.20;102093.94;5071934;28;20450;-78
2022/07/07 01:05:19;;;;;;;0.10;0.10;;;;;;;21.81;52.95;102079.22;5073035;28;20032;-79
2022/07/07 01:07:47;;;;;;;0.22;0.22;;;;;;;21.67;53.62;102088.94;5072893;28;20047;-78
2022/07/07 01:10:14;;;;;;;0.00;0.00;;;;;;;21.82;53.41;102096.31;5072818;28;20104;-79
2022/07/07 01:12:41;;;;;;;0.10;0.10;;;;;;;21.71;53.99;102093.22;5071964;28;20027;-78
2022/07/07 01:15:09;;;;;;;0.00;0.00;;;;;;;21.69;54.08;102100.53;5072415;28;20116;-79
2022/07/07 01:17:36;;;;;;;0.38;0.30;;;;;;;21.75;53.99;102090.31;5072592;28;20036;-78
2022/07/07 01:20:05;;;;;;;0.10;0.10;;;;;;;21.68;54.55;102093.38;5072624;28;20063;-78
2022/07/07 01:22:34;;;;;;;0.10;0.10;;;;;;;21.53;55.39;102098.50;5071552;28;20028;-79
2022/07/07 01:25:01;;;;;;;1.20;0.45;;;;;;;21.51;55.94;102092.31;5072966;28;20035;-79
2022/07/07 01:27:27;;;;;;;0.00;0.00;;;;;;;21.22;56.65;102108.00;5073079;28;20020;-79
2022/07/07 01:29:55;;;;;;;0.10;0.10;;;;;;;21.01;58.34;102093.69;5072489;28;20029;-78
2022/07/07 01:32:22;;;;;;;0.22;0.22;;;;;;;20.97;57.60;102097.44;5071692;28;20473;-79
2022/07/07 01:34:49;;;;;;;0.00;0.00;;;;;;;20.84;58.36;102097.97;5072684;28;20036;-78
2022/07/07 01:37:16;;;;;;;0.05;0.05;;;;;;;20.69;59.00;102094.06;5072406;28;20024;-79
2022/07/07 01:39:43;;;;;;;0.10;0.10;;;;;;;20.61;59.70;102089.97;5073167;28;20035;-78
2022/07/07 01:42:11;;;;;;;0.00;0.00;;;;;;;20.30;60.10;102102.91;5071216;28;20407;-78
2022/07/07 01:44:39;;;;;;;0.00;0.00;;;;;;;20.17;60.44;102096.25;5072391;28;20033;-78
2022/07/07 01:47:07;;;;;;;0.00;0.00;;;;;;;20.23;60.39;102085.25;5072207;28;20054;-78
2022/07/07 01:49:34;;;;;;;0.25;0.25;;;;;;;20.20;60.18;102091.63;5071882;28;20039;-78
2022/07/07 01:52:01;;;;;;;0.20;0.20;;;;;;;20.16;60.80;102084.63;5071457;28;20407;-79
2022/07/07 01:54:28;;;;;;;0.75;0.63;;;;;;;20.16;60.58;102089.13;5072235;28;20029;-78
2022/07/07 01:56:55;;;;;;;0.00;0.00;;;;;;;20.22;60.78;102094.25;5071843;28;20071;-79
2022/07/07 01:59:21;;;;;;;0.10;0.10;;;;;;;20.17;61.70;102082.81;5072475;28;20079;-78
2022/07/07 02:01:47;;;;;;;0.00;0.00;;;;;;;20.18;61.26;102080.03;5071146;28;20028;-78
2022/07/07 02:04:13;;;;;;;0.00;0.00;;;;;;;20.03;62.10;102065.41;5071987;28;20037;-78
2022/07/07 02:06:40;;;;;;;0.00;0.00;;;;;;;20.11;61.65;102069.59;5071966;28;20496;-79
2022/07/07 02:09:07;;;;;;;0.10;0.10;;;;;;;20.02;61.45;102079.78;5073842;28;20115;-79
2022/07/07 02:11:34;;;;;;;0.00;0.00;;;;;;;20.09;61.67;102082.22;5075006;28;20028;-78
2022/07/07 02:14:01;;;;;;;0.00;0.00;;;;;;;20.08;61.84;102091.25;5075510;28;20373;-79
2022/07/07 02:16:27;;;;;;;2.08;1.88;;;;;;;19.93;63.66;102082.00;5075507;28;20504;-78
2022/07/07 02:18:56;;;;;;;0.20;0.20;;;;;;;19.88;64.17;102074.09;5075677;28;20034;-79
2022/07/07 02:21:23;;;;;;;0.00;0.00;;;;;;;19.76;64.42;102074.53;5074796;28;20021;-78
2022/07/07 02:23:51;;;;;;;0.25;0.25;;;;;;;19.71;64.92;102069.34;5075316;28;20144;-78
2022/07/07 02:26:18;;;;;;;0.00;0.00;;;;;;;19.63;65.09;102077.72;5075553;28;20040;-78
2022/07/07 02:28:44;;;;;;;0.08;0.08;;;;;;;19.59;65.50;102078.78;5075923;28;20552;-78
2022/07/07 02:31:11;;;;;;;4.28;0.52;;;;;;;19.44;66.13;102069.47;5074593;28;20033;-79
2022/07/07 02:33:37;;;;;;;0.00;0.00;;;;;;;19.45;66.42;102070.34;5075341;28;20075;-78
2022/07/07 02:36:05;;;;;;;0.00;0.00;;;;;;;19.43;66.27;102072.19;5075832;28;20088;-79
2022/07/07 02:38:32;;;;;;;0.35;0.17;;;;;;;19.45;66.84;102071.25;5075576;28;20048;-78
2022/07/07 02:40:58;;;;;;;0.75;0.75;;;;;;;19.45;66.31;102065.88;5074543;28;20105;-78
2022/07/07 02:43:25;;;;;;;0.00;0.00;;;;;;;19.49;66.91;102071.97;5075523;28;20040;-78
2022/07/07 02:45:52;;;;;;;0.00;0.00;;;;;;;19.52;65.87;102074.56;5075022;28;20442;-77
2022/07/07 02:48:20;;;;;;;0.10;0.10;;;;;;;19.28;67.59;102079.94;5074570;28;20029;-78
2022/07/07 02:50:47;;;;;;;0.00;0.00;;;;;;;19.27;68.30;102086.22;5073604;28;20028;-77
2022/07/07 02:53:14;;;;;;;0.00;0.00;;;;;;;19.30;67.70;102063.75;5074559;28;20029;-78
2022/07/07 02:55:41;;;;;;;0.00;0.00;;;;;;;19.23;68.49;102063.09;5074984;28;20055;-77
2022/07/07 02:58:09;;;;;;;1.38;1.27;;;;;;;19.23;68.31;102050.53;5074527;28;20032;-78
2022/07/07 03:00:36;;;;;;;0.00;0.00;;;;;;;19.25;68.94;102058.53;5074128;28;20031;-79
2022/07/07 03:03:04;;;;;;;0.20;0.20;;;;;;;19.13;68.93;102069.72;5073589;28;20028;-77
2022/07/07 03:05:31;;;;;;;0.00;0.00;;;;;;;19.04;68.68;102071.81;5074322;28;20123;-77
2022/07/07 03:07:58;;;;;;;0.10;0.10;;;;;;;19.11;68.40;102072.47;5074287;28;20035;-78
2022/07/07 03:10:24;;;;;;;0.00;0.00;;;;;;;19.14;67.65;102083.13;5074206;28;20115;-78
2022/07/07 03:12:50;;;;;;;0.00;0.00;;;;;;;19.07;68.09;102082.44;5073357;28;20024;-78
2022/07/07 03:15:16;;;;;;;0.10;0.10;;;;;;;19.02;68.39;102083.56;5074173;28;20078;-77
2022/07/07 03:17:44;;;;;;;0.03;0.03;;;;;;;19.05;67.73;102091.50;5074077;28;20025;-79
2022/07/07 03:20:11;;;;;;;0.70;0.70;;;;;;;19.10;67.64;102083.28;5074134;28;20107;-78
2022/07/07 03:22:39;;;;;;;0.00;0.00;;;;;;;19.04;67.83;102077.19;5073176;28;20025;-78
2022/07/07 03:25:06;;;;;;;0.00;0.00;;;;;;;19.02;67.62;102076.38;5073930;28;20492;-77
2022/07/07 03:27:33;;;;;;;0.00;0.00;;;;;;;18.95;67.92;102076.66;5074083;28;20029;-78
2022/07/07 03:29:59;;;;;;;0.00;0.00;;;;;;;18.94;68.02;102085.63;5073974;28;20041;-78
2022/07/07 03:32:25;;;;;;;0.32;0.32;;;;;;;18.89;67.73;102085.75;5072820;28;20029;-78
2022/07/07 03:34:51;;;;;;;0.03;0.03;;;;;;;18.86;68.27;102083.19;5073922;28;20103;-78
2022/07/07 03:37:18;;;;;;;0.00;0.00;;;;;;;18.75;69.01;102088.94;5073457;28;20451;-77
2022/07/07 03:39:44;;;;;;;0.00;0.00;;;;;;;18.73;69.21;102094.34;5073430;28;20097;-78
2022/07/07 03:42:10;;;;;;;0.00;0.00;;;;;;;18.81;68.04;102091.41;5072504;28;20021;-78
2022/07/07 03:44:36;;;;;;;0.08;0.08;;;;;;;18.80;68.73;102088.78;5073253;28;20032;-78
2022/07/07 03:47:03;;;;;;;0.00;0.00;;;;;;;18.80;68.87;102104.88;5072151;28;20399;-78
2022/07/07 03:49:30;;;;;;;0.00;0.00;;;;;;;18.86;68.24;102093.94;5072016;28;20031;-78
2022/07/07 03:51:57;;;;;;;0.00;0.00;;;;;;;18.76;69.03;102107.66;5071417;28;20119;-78
2022/07/07 03:54:23;;;;;;;1.27;1.27;;;;;;;18.73;69.06;102109.59;5072885;28;20520;-78
2022/07/07 03:56:49;;;;;;;0.10;0.10;;;;;;;18.76;69.45;102104.97;5072702;28;20117;-79
2022/07/07 03:59:15;;;;;;;0.00;0.00;;;;;;;18.76;68.58;102104.09;5072549;28;20030;-77
2022/07/07 04:01:44;;;;;;;0.05;0.05;;;;;;;18.76;69.35;102094.22;5071427;28;20071;-77
2022/07/07 04:04:11;;;;;;;0.10;0.10;;;;;;;18.83;69.03;102099.41;5072833;28;20511;-78
2022/07/07 04:06:37;;;;;;;0.10;0.10;;;;;;;18.83;68.96;102104.75;5072690;28;20032;-78
2022/07/07 04:09:03;;;;;;;0.10;0.10;;;;;;;18.72;69.44;102103.34;5072725;28;20029;-78
2022/07/07 04:11:30;;;;;;;0.00;0.00;;;;;;;18.74;69.55;102106.84;5071632;28;20388;-78
2022/07/07 04:13:56;;;;;;;0.00;0.00;;;;;;;18.80;69.13;102104.88;5073102;28;20043;-78
2022/07/07 04:16:22;;;;;;;0.00;0.00;;;;;;;18.80;69.10;102111.13;5072787;28;20032;-78
2022/07/07 04:18:48;;;;;;;0.00;0.00;;;;;;;18.87;69.00;102109.97;5072446;28;20535;-77
2022/07/07 04:21:14;;;;;;;0.08;0.08;;;;;;;18.81;68.93;102103.97;5071708;28;20032;-77
2022/07/07 04:23:40;;;;;;;0.00;0.00;;;;;;;18.72;69.75;102114.06;5072843;28;20047;-78
2022/07/07 04:26:06;;;;;;;0.00;0.00;;;;;;;18.86;68.75;102107.34;5072608;28;20028;-78
2022/07/07 04:28:32;;;;;;;0.00;0.00;;;;;;;18.78;69.02;102106.72;5072493;28;20035;-78
2022/07/07 04:30:58;;;;;;;0.10;0.10;;;;;;;18.84;68.73;102112.78;5070772;28;20025;-75
2022/07/07 04:33:24;;;;;;;0.10;0.10;;;;;;;18.76;68.71;102120.22;5072305;28;20060;-77
2022/07/07 04:35:50;;;;;;;0.00;0.00;;;;;;;18.73;68.55;102128.41;5072463;28;20041;-78
2022/07/07 04:38:16;;;;;;;0.00;0.00;;;;;;;18.89;67.74;102131.41;5072467;28;20048;-78
2022/07/07 04:40:42;;;;;;;0.00;0.00;;;;;;;18.84;67.57;102142.31;5071755;28;20036;-77
2022/07/07 04:43:08;;;;;;;0.10;0.10;;;;;;;18.78;66.68;102138.94;5072028;28;20040;-78
2022/07/07 04:45:35;;;;;;;0.55;0.55;;;;;;;18.68;66.35;102149.13;5072058;28;20067;-77
2022/07/07 04:48:01;;;;;;;0.08;0.08;;;;;;;18.42;65.55;102148.19;5072228;28;20036;-77
2022/07/07 04:50:27;;;;;;;0.00;0.00;;;;;;;18.59;65.32;102158.34;5072417;28;20032;-78
2022/07/07 04:52:54;;;;;;;0.30;0.30;;;;;;;18.70;65.79;102160.69;5071831;28;20033;-79
2022/07/07 04:55:20;;;;;;;0.10;0.10;;;;;;;18.70;65.31;102164.25;5072819;28;20028;-79
2022/07/07 04:57:46;;;;;;;0.45;0.45;;;;;;;18.73;65.32;102169.53;5072985;28;20035;-78
2022/07/07 05:00:13;;;;;;;0.03;0.03;;;;;;;18.70;64.92;102169.63;5072090;28;20174;-78
2022/07/07 05:02:39;;;;;;;0.00;0.00;;;;;;;18.56;64.17;102180.81;5071582;28;20020;-77
2022/07/07 05:05:06;;;;;;;0.00;0.00;;;;;;;18.66;64.14;102184.06;5072015;28;20060;-77
2022/07/07 05:07:32;;;;;;;0.03;0.03;;;;;;;18.59;64.10;102177.16;5071951;28;20037;-78
2022/07/07 05:09:59;;;;;;;0.00;0.00;;;;;;;18.72;63.73;102177.63;5072221;28;20079;-77
2022/07/07 05:12:25;;;;;;;0.05;0.05;;;;;;;18.71;64.18;102179.44;5070949;28;20033;-78
2022/07/07 05:14:51;;;;;;;0.10;0.10;;;;;;;18.74;63.99;102187.41;5072169;28;20029;-78
2022/07/07 05:17:18;;;;;;;0.10;0.10;;;;;;;18.71;63.34;102181.25;5071904;28;20444;-78
2022/07/07 05:19:44;;;;;;;1.17;0.68;;;;;;;18.82;63.86;102184.44;5071834;28;20103;-78
2022/07/07 05:22:10;;;;;;;0.30;0.30;;;;;;;18.78;63.77;102187.28;5071359;28;20025;-77
2022/07/07 05:24:36;;;;;;;0.40;0.40;;;;;;;18.75;63.17;102189.16;5072105;28;20048;-79
2022/07/07 05:27:03;;;;;;;0.00;0.00;;;;;;;18.81;62.92;102197.94;5072061;28;20392;-78
2022/07/07 05:29:29;;;;;;;0.10;0.10;;;;;;;18.84;62.92;102187.06;5071991;28;20039;-79
2022/07/07 05:31:55;;;;;;;0.25;0.25;;;;;;;18.69;62.42;102199.19;5071270;28;20024;-79
2022/07/07 05:34:21;;;;;;;1.65;0.52;;;;;;;18.84;62.83;102192.44;5071964;28;20119;-78
2022/07/07 05:36:47;;;;;;;0.00;0.00;;;;;;;18.91;62.45;102200.28;5071986;28;20028;-78
2022/07/07 05:39:14;;;;;;;0.10;0.10;;;;;;;18.85;61.75;102216.56;5071759;28;20028;-78
2022/07/07 05:41:41;;;;;;;0.10;0.10;;;;;;;18.58;61.89;102234.47;5070590;28;20111;-78
2022/07/07 05:44:07;;;;;;;0.10;0.10;;;;;;;18.57;62.80;102213.91;5073326;28;20060;-78
2022/07/07 05:46:33;;;;;;;0.00;0.00;;;;;;;18.48;63.12;102231.19;5075873;28;20074;-77
2022/07/07 05:48:59;;;;;;;0.10;0.10;;;;;;;18.43;63.30;102223.28;5074852;28;20036;-78
2022/07/07 05:51:26;;;;;;;0.10;0.10;;;;;;;18.35;64.08;102237.84;5074031;28;20028;-78
2022/07/07 05:53:52;;;;;;;0.40;0.40;;;;;;;18.37;64.59;102252.97;5075323;28;20515;-77
2022/07/07 05:56:18;;;;;;;0.00;0.00;;;;;;;18.39;64.03;102237.72;5075115;28;20396;-77
2022/07/07 05:58:44;;;;;;;0.10;0.10;;;;;;;18.41;64.84;102230.47;5075121;28;20055;-79
2022/07/07 06:01:10;;;;;;;0.10;0.10;;;;;;;18.47;64.17;102236.56;5074275;28;20115;-77
2022/07/07 06:03:36;;;;;;;0.00;0.00;;;;;;;18.48;64.51;102241.91;5088916;22;20054;-80
2022/07/07 06:06:03;;;;;;;0.10;0.10;;;;;;;18.45;64.58;102254.56;5036343;28;20037;-79
2022/07/07 06:08:29;;;;;;;0.00;0.00;;;;;;;18.45;64.94;102252.72;5039911;28;20112;-79
2022/07/07 06:10:55;;;;;;;0.10;0.10;;;;;;;18.44;64.43;102248.28;5038619;28;20060;-80
2022/07/07 06:13:22;;;;;;;0.10;0.10;;;;;;;18.52;64.04;102256.13;5039817;28;20055;-81
2022/07/07 06:15:48;;;;;;;0.15;0.15;;;;;;;18.62;64.06;102246.84;5039868;28;20084;-80
2022/07/07 06:18:14;;;;;;;0.05;0.05;;;;;;;18.50;64.18;102264.19;5038949;28;20021;-79
2022/07/07 06:20:40;;;;;;;0.10;0.10;;;;;;;18.62;63.72;102262.97;5039008;28;20033;-80
2022/07/07 06:23:06;;;;;;;0.00;0.00;;;;;;;18.67;63.36;102252.94;5039120;28;20029;-79
2022/07/07 06:25:34;;;;;;;0.10;0.10;;;;;;;18.84;62.98;102263.16;5039366;28;20037;-80
2022/07/07 06:28:00;;;;;;;0.13;0.13;;;;;;;18.97;62.63;102268.16;5039387;28;20029;-81
2022/07/07 06:30:27;;;;;;;0.75;0.70;;;;;;;18.89;62.15;102287.16;5039388;28;20037;-81
2022/07/07 06:32:53;;;;;;;0.28;0.28;;;;;;;18.82;63.14;102264.16;5039010;28;20025;-81
2022/07/07 06:35:20;;;;;;;0.10;0.10;;;;;;;18.94;63.22;102277.22;5039796;28;20064;-80
2022/07/07 06:37:47;;;;;;;0.10;0.10;;;;;;;18.64;63.41;102277.22;5038950;28;20030;-80
2022/07/07 06:40:13;;;;;;;0.03;0.03;;;;;;;18.69;63.31;102277.97;5039026;28;20029;-82
2022/07/07 06:42:39;;;;;;;0.52;0.52;;;;;;;18.71;63.58;102291.31;5037561;28;20042;-81
2022/07/07 06:45:06;;;;;;;0.20;0.20;;;;;;;18.53;63.81;102300.81;5037360;28;20045;-80
2022/07/07 06:47:32;;;;;;;0.17;0.17;;;;;;;18.71;63.70;102284.13;5037990;28;20030;-80
2022/07/07 06:49:59;;;;;;;0.10;0.10;;;;;;;18.72;63.79;102291.25;5039208;28;20057;-80
2022/07/07 06:52:25;;;;;;;0.10;0.10;;;;;;;18.84;63.27;102294.50;5036110;28;20049;-80
2022/07/07 06:54:51;;;;;;;0.10;0.10;;;;;;;18.87;63.06;102289.03;5038398;28;20525;-80
2022/07/07 06:57:17;;;;;;;0.80;0.35;;;;;;;18.85;61.57;102293.56;5038550;28;20488;-80
2022/07/07 06:59:44;;;;;;;0.10;0.10;;;;;;;18.81;61.21;102289.22;5038533;28;20027;-80
2022/07/07 07:02:10;;;;;;;0.10;0.10;;;;;;;19.03;61.64;102284.94;5037731;28;20018;-81
2022/07/07 07:04:36;;;;;;;0.10;0.10;;;;;;;19.18;61.68;102312.25;5038283;28;20034;-81
2022/07/07 07:07:02;;;;;;;0.00;0.00;;;;;;;19.22;62.39;102300.47;5038117;28;20506;-81
2022/07/07 07:09:28;;;;;;;0.63;0.32;;;;;;;19.14;62.55;102302.53;5038058;28;20098;-80
2022/07/07 07:11:54;;;;;;;0.03;0.03;;;;;;;19.13;62.99;102308.81;5036965;28;20033;-80
2022/07/07 07:14:22;;;;;;;0.47;0.47;;;;;;;19.02;63.16;102310.06;5038356;28;20037;-80
2022/07/07 07:16:48;;;;;;;0.00;0.00;;;;;;;18.99;62.96;102315.53;5038869;28;20029;-81
2022/07/07 07:19:14;;;;;;;0.20;0.20;;;;;;;19.06;63.34;102314.38;5038563;28;20063;-79
2022/07/07 07:21:41;;;;;;;0.00;0.00;;;;;;;19.12;62.17;102316.00;5037251;28;20032;-81
2022/07/07 07:24:11;;;;;;;0.10;0.10;;;;;;;19.30;61.52;102333.34;5039260;28;20034;-81
2022/07/07 07:26:38;;;;;;;0.30;0.30;;;;;;;19.33;60.69;102317.09;5039571;28;20033;-81
2022/07/07 07:29:04;;;;;;;0.10;0.10;;;;;;;19.52;60.98;102316.50;5038519;28;20033;-80
2022/07/07 07:31:30;;;;;;;0.10;0.10;;;;;;;19.62;60.66;102314.38;5038620;28;20052;-81
2022/07/07 07:33:56;;;;;;;0.03;0.03;;;;;;;19.72;60.02;102327.41;5038403;28;20038;-80
2022/07/07 07:36:22;;;;;;;0.00;0.00;;;;;;;19.72;60.09;102337.31;5038840;28;20113;-81
2022/07/07 07:38:50;;;;;;;0.00;0.00;;;;;;;19.73;59.08;102334.56;5037501;28;20348;-80
2022/07/07 07:41:18;;;;;;;0.10;0.10;;;;;;;19.77;58.92;102339.84;5036335;28;20049;-79
2022/07/07 07:43:44;;;;;;;0.30;0.30;;;;;;;19.71;59.08;102339.13;5038165;28;20033;-81
2022/07/07 07:46:10;;;;;;;0.15;0.15;;;;;;;19.64;59.47;102345.66;5038208;28;20112;-81
2022/07/07 07:48:36;;;;;;;0.00;0.00;;;;;;;19.83;59.31;102339.66;5037454;28;20104;-80
2022/07/07 07:51:03;;;;;;;0.00;0.00;;;;;;;19.72;58.88;102335.47;5036735;28;20025;-82
2022/07/07 07:53:29;;;;;;;0.10;0.10;;;;;;;19.88;58.75;102349.31;5037583;28;20094;-80
2022/07/07 07:55:55;;;;;;;0.10;0.10;;;;;;;19.87;57.81;102344.00;5037067;28;20049;-81
2022/07/07 07:58:21;;;;;;;0.03;0.03;;;;;;;19.95;58.03;102368.81;5036810;28;20081;-80
2022/07/07 08:00:48;;;;;;;0.10;0.10;;;;;;;20.09;57.53;102365.63;5036144;28;20031;-80
2022/07/07 08:03:15;;;;;;;0.05;0.05;;;;;;;20.07;57.75;102355.84;5038327;28;20034;-82
2022/07/07 08:05:41;;;;;;;0.10;0.10;;;;;;;20.11;57.55;102353.00;5037908;28;20049;-81
2022/07/07 08:08:07;;;;;;;0.10;0.10;;;;;;;20.15;57.00;102346.56;5038292;28;20025;-84
2022/07/07 08:10:33;;;;;;;2.20;1.45;;;;;;;20.34;57.46;102352.16;5038713;28;20112;-80
2022/07/07 08:12:59;;;;;;;0.00;0.00;;;;;;;20.30;56.62;102349.63;5036056;28;20064;-80
2022/07/07 08:15:25;;;;;;;0.10;0.10;;;;;;;20.48;57.07;102350.75;5036880;28;20041;-81
2022/07/07 08:17:52;;;;;;;0.00;0.00;;;;;;;20.62;57.20;102344.84;5037092;28;20034;-81
2022/07/07 08:20:18;;;;;;;0.70;0.70;;;;;;;20.52;56.11;102355.09;5037350;28;20053;-80
2022/07/07 08:22:44;;;;;;;0.15;0.15;;;;;;;20.56;55.85;102358.53;5035724;28;20025;-81
2022/07/07 08:25:10;;;;;;;0.15;0.15;;;;;;;20.61;56.05;102349.34;5037127;28;20029;-81
2022/07/07 08:27:37;;;;;;;0.10;0.10;;;;;;;20.62;55.92;102366.38;5034024;28;20112;-80
2022/07/07 08:30:05;;;;;;;0.10;0.10;;;;;;;20.36;57.73;102390.66;5035342;28;20104;-78
2022/07/07 08:32:31;;;;;;;0.00;0.00;;;;;;;20.01;59.80;102398.19;5034875;28;20061;-77
2022/07/07 08:34:57;;;;;;;0.10;0.10;;;;;;;19.78;62.72;102395.38;5034539;28;20029;-77
2022/07/07 08:37:23;;;;;;;0.08;0.08;;;;;;;19.53;62.26;102397.06;5033972;28;20037;-77
2022/07/07 08:39:50;;;;;;;0.30;0.30;;;;;;;19.58;63.04;102404.09;5033639;28;20372;-77
2022/07/07 08:42:16;;;;;;;0.05;0.05;;;;;;;19.55;63.59;102403.28;5032973;28;20041;-78
2022/07/07 08:44:43;;;;;;;0.10;0.10;;;;;;;19.59;62.81;102406.75;5033880;28;20037;-78
2022/07/07 08:47:09;;;;;;;0.00;0.00;;;;;;;19.75;63.76;102400.84;5033439;28;20079;-80
2022/07/07 08:49:35;;;;;;;0.10;0.10;;;;;;;19.67;62.71;102402.00;5032464;28;20108;-79
2022/07/07 08:52:02;;;;;;;0.00;0.00;;;;;;;19.54;63.44;102404.22;5030759;28;20373;-79
2022/07/07 08:54:28;;;;;;;0.00;0.00;;;;;;;19.75;63.08;102404.44;5033275;28;20033;-79
2022/07/07 08:56:55;;;;;;;0.65;0.65;;;;;;;19.77;63.18;102407.94;5033223;28;20496;-79
2022/07/07 08:59:22;;;;;;;0.00;0.00;;;;;;;19.67;63.14;102415.44;5033310;28;20034;-79
2022/07/07 09:01:58;;;;;;;1.98;0.43;;;;;;;19.87;63.15;102413.94;5033731;28;20101;-81
2022/07/07 09:04:25;;;;;;;0.10;0.10;;;;;;;19.85;62.97;102418.47;5034064;28;20106;-80
2022/07/07 09:07:02;;;;;;;0.00;0.00;;;;;;;20.09;62.32;102418.53;5036011;28;20044;-80
2022/07/07 09:09:46;;;;;;;0.10;0.10;;;;;;;20.38;62.06;102433.66;5036004;28;20105;-80
2022/07/07 09:12:14;;;;;;;0.00;0.00;;;;;;;20.31;60.91;102424.06;5034917;28;20080;-79
2022/07/07 09:14:44;;;;;;;0.10;0.10;;;;;;;20.43;60.68;102436.22;5035690;28;20045;-81
2022/07/07 09:17:31;;;;;;;0.10;0.10;;;;;;;20.53;60.66;102448.38;5034342;28;20542;-80
2022/07/07 09:20:03;;;;;;;0.10;0.10;;;;;;;20.32;60.93;102444.66;5038477;28;20049;-78
2022/07/07 09:22:51;;;;;;;4.55;1.38;;;;;;;20.17;60.82;102452.31;5039207;28;20152;-79
2022/07/07 09:25:21;;;;;;;0.10;0.10;;;;;;;20.12;60.80;102450.75;5038703;28;20026;-81
2022/07/07 09:33:13;;;;;;;0.00;0.00;;;;;;;20.49;60.58;102450.31;5132222;27;20386;-80
2022/07/07 09:38:31;;;;;;;0.08;0.08;;;;;;;20.26;60.59;102461.91;5132739;28;20409;-79
2022/07/07 09:41:03;;;;;;;0.00;0.00;;;;;;;20.32;61.13;102458.13;5131590;27;20439;-78
2022/07/07 09:43:32;;;;;;;0.03;0.03;;;;;;;20.20;60.87;102462.13;5131806;27;20027;-78
2022/07/07 09:46:23;;;;;;;0.10;0.10;;;;;;;20.26;60.01;102477.16;5131870;27;20148;-80
2022/07/07 09:48:51;;;;;;;0.10;0.10;;;;;;;20.17;61.34;102494.53;5131070;27;20031;-79
2022/07/07 09:51:34;;;;;;;0.10;0.10;;;;;;;20.19;61.41;102489.97;5130487;27;20023;-79
2022/07/07 09:59:19;;;;;;;0.10;0.10;;;;;;;20.02;62.21;102504.84;5122056;27;20388;-80
2022/07/07 10:01:47;;;;;;;0.00;0.00;;;;;;;20.06;62.46;102504.78;5122493;28;20036;-80
2022/07/07 10:04:17;;;;;;;0.10;0.10;;;;;;;20.23;62.14;102510.44;5121459;28;20088;-80
2022/07/07 10:06:44;;;;;;;0.10;0.10;;;;;;;20.27;61.61;102522.88;5121769;28;20059;-81
2022/07/07 10:09:15;;;;;;;0.20;0.20;;;;;;;20.41;61.33;102508.06;5123213;28;20088;-79
2022/07/07 10:11:44;;;;;;;0.10;0.10;;;;;;;20.32;61.14;102520.03;5121123;28;20380;-80
2022/07/07 10:14:14;;;;;;;0.00;0.00;;;;;;;20.33;60.62;102516.41;5122102;28;20024;-80
2022/07/07 10:16:42;;;;;;;0.10;0.10;;;;;;;20.20;60.42;102532.09;5121270;28;20023;-81
2022/07/07 10:19:10;;;;;;;0.00;0.00;;;;;;;20.22;60.61;102527.53;5121766;28;20023;-82
2022/07/07 10:21:39;;;;;;;1.17;0.57;;;;;;;20.29;60.52;102531.78;5119919;28;20028;-79
2022/07/07 10:24:06;;;;;;;0.00;0.00;;;;;;;20.43;59.97;102533.13;5122019;28;20142;-80
2022/07/07 10:26:42;;;;;;;0.10;0.10;;;;;;;20.70;59.74;102536.66;5121233;28;20031;-79
2022/07/07 10:29:09;;;;;;;0.10;0.10;;;;;;;20.80;58.35;102537.25;5121962;28;20455;-80
2022/07/07 10:31:37;;;;;;;0.10;0.10;;;;;;;20.98;56.88;102541.06;5121149;28;20020;-80
2022/07/07 10:34:08;;;;;;;0.13;0.13;;;;;;;21.12;57.19;102541.44;5121907;28;20074;-80
2022/07/07 10:37:02;;;;;;;0.30;0.30;;;;;;;21.27;56.16;102550.75;5121420;28;20024;-80
2022/07/07 10:39:33;;;;;;;0.20;0.20;;;;;;;21.03;55.95;102548.97;5119751;28;20028;-80
2022/07/07 10:44:45;;;;;;;0.00;0.00;;;;;;;21.13;55.47;102561.16;5112869;27;1260615;-81
2022/07/07 10:50:01;;;;;;;0.10;0.10;;;;;;;21.14;55.64;102574.59;5122438;27;20372;-81
2022/07/07 10:52:40;;;;;;;0.05;0.05;;;;;;;21.29;56.17;102573.13;5122068;28;20035;-80
2022/07/07 10:55:08;;;;;;;0.10;0.10;;;;;;;21.44;55.95;102581.59;5121507;28;20028;-81
2022/07/07 10:57:46;;;;;;;2.65;0.95;;;;;;;21.46;55.36;102579.72;5122485;28;20028;-81
2022/07/07 11:03:16;;;;;;;0.10;0.10;;;;;;;21.78;55.75;102585.69;5064333;28;20060;-82
2022/07/07 11:05:44;;;;;;;0.10;0.10;;;;;;;21.60;55.09;102590.88;5116439;28;20056;-81
2022/07/07 11:08:12;;;;;;;0.10;0.10;;;;;;;21.42;54.75;102605.00;5123238;28;20047;-79
2022/07/07 11:10:49;;;;;;;0.05;0.05;;;;;;;21.13;56.36;102613.28;5122537;28;20511;-81
2022/07/07 11:13:37;;;;;;;0.20;0.20;;;;;;;20.84;57.40;102617.88;5122189;28;20491;-80
2022/07/07 11:18:47;;;;;;;0.20;0.20;;;;;;;20.99;58.07;102623.66;5129206;27;1166058;-80
2022/07/07 11:21:13;;;;;;;0.65;0.65;;;;;;;21.20;57.28;102615.72;5141635;27;20039;-82
2022/07/07 11:23:59;;;;;;;0.00;0.00;;;;;;;21.48;55.62;102623.66;5139696;28;20024;-80
2022/07/07 11:26:26;;;;;;;0.10;0.10;;;;;;;21.68;55.69;102624.75;5121000;28;20102;-82
2022/07/07 11:28:55;;;;;;;0.00;0.00;;;;;;;21.45;55.47;102643.53;5117882;28;20028;-82
2022/07/07 11:31:21;;;;;;;0.10;0.10;;;;;;;21.19;55.88;102649.88;5117737;28;20044;-81
2022/07/07 11:33:50;;;;;;;0.08;0.08;;;;;;;21.06;56.78;102648.56;5118681;28;20039;-83
2022/07/07 11:36:20;;;;;;;0.00;0.00;;;;;;;20.67;57.51;102655.25;5118155;28;20084;-83
2022/07/07 11:38:53;;;;;;;0.10;0.10;;;;;;;20.64;58.02;102664.31;5117773;28;20028;-83
2022/07/07 11:44:22;;;;;;;0.10;0.10;;;;;;;20.89;57.75;102655.44;5134804;27;1242368;-80
2022/07/07 11:46:50;;;;;;;0.10;0.10;;;;;;;21.00;57.56;102664.03;5155795;27;20038;-81
2022/07/07 11:49:18;;;;;;;0.30;0.30;;;;;;;21.13;56.36;102668.97;5155252;27;20027;-81
2022/07/07 11:51:46;;;;;;;0.20;0.20;;;;;;;21.21;55.22;102666.00;5151879;27;20039;-80
2022/07/07 11:54:12;;;;;;;0.35;0.35;;;;;;;21.32;54.64;102664.69;5134655;28;20118;-80